sensor_id;sensor_type;location;lat;lon;timestamp;P1;durP1;ratioP1;P2;durP2;ratioP2
51800;SDS011;37855;53.204;6.568;2023-05-15T00:02:15;59.55;;;26.67;;
51800;SDS011;37855;53.204;6.568;2023-05-15T00:04:41;49.30;;;25.53;;
51800;SDS011;37855;53.204;6.568;2023-05-15T00:07:07;53.87;;;26.93;;
51800;SDS011;37855;53.204;6.568;2023-05-15T00:09:33;51.42;;;26.15;;
51800;SDS011;37855;53.204;6.568;2023-05-15T00:11:58;48.28;;;25.83;;
51800;SDS011;37855;53.204;6.568;2023-05-15T00:14:24;50.73;;;25.00;;
51800;SDS011;37855;53.204;6.568;2023-05-15T00:16:50;57.60;;;27.23;;
51800;SDS011;37855;53.204;6.568;2023-05-15T00:19:15;51.43;;;26.20;;
51800;SDS011;37855;53.204;6.568;2023-05-15T00:21:41;50.85;;;26.33;;
51800;SDS011;37855;53.204;6.568;2023-05-15T00:24:07;51.10;;;23.37;;
51800;SDS011;37855;53.204;6.568;2023-05-15T00:26:33;46.00;;;24.80;;
51800;SDS011;37855;53.204;6.568;2023-05-15T00:28:58;48.37;;;25.27;;
51800;SDS011;37855;53.204;6.568;2023-05-15T00:31:24;47.78;;;25.10;;
51800;SDS011;37855;53.204;6.568;2023-05-15T00:33:50;47.50;;;24.33;;
51800;SDS011;37855;53.204;6.568;2023-05-15T00:36:15;50.63;;;24.48;;
51800;SDS011;37855;53.204;6.568;2023-05-15T00:38:41;47.87;;;24.03;;
51800;SDS011;37855;53.204;6.568;2023-05-15T00:41:07;44.85;;;24.10;;
51800;SDS011;37855;53.204;6.568;2023-05-15T00:43:35;47.70;;;24.23;;
51800;SDS011;37855;53.204;6.568;2023-05-15T00:46:04;48.90;;;24.35;;
51800;SDS011;37855;53.204;6.568;2023-05-15T00:48:31;44.30;;;24.33;;
51800;SDS011;37855;53.204;6.568;2023-05-15T00:50:58;41.03;;;22.90;;
51800;SDS011;37855;53.204;6.568;2023-05-15T00:53:25;48.53;;;24.65;;
51800;SDS011;37855;53.204;6.568;2023-05-15T00:55:53;48.47;;;25.20;;
51800;SDS011;37855;53.204;6.568;2023-05-15T00:58:21;45.55;;;23.35;;
51800;SDS011;37855;53.204;6.568;2023-05-15T01:00:48;44.55;;;23.25;;
51800;SDS011;37855;53.204;6.568;2023-05-15T01:03:15;46.27;;;23.93;;
51800;SDS011;37855;53.204;6.568;2023-05-15T01:05:41;47.75;;;25.27;;
51800;SDS011;37855;53.204;6.568;2023-05-15T01:08:12;48.20;;;24.95;;
51800;SDS011;37855;53.204;6.568;2023-05-15T01:10:46;41.28;;;23.38;;
51800;SDS011;37855;53.204;6.568;2023-05-15T01:13:14;48.08;;;25.60;;
51800;SDS011;37855;53.204;6.568;2023-05-15T01:15:40;43.40;;;25.20;;
51800;SDS011;37855;53.204;6.568;2023-05-15T01:18:07;43.25;;;23.52;;
51800;SDS011;37855;53.204;6.568;2023-05-15T01:20:33;45.33;;;24.35;;
51800;SDS011;37855;53.204;6.568;2023-05-15T01:23:37;47.00;;;24.27;;
51800;SDS011;37855;53.204;6.568;2023-05-15T01:32:06;45.85;;;24.10;;
51800;SDS011;37855;53.204;6.568;2023-05-15T01:37:18;48.50;;;26.27;;
51800;SDS011;37855;53.204;6.568;2023-05-15T01:39:48;48.47;;;25.07;;
51800;SDS011;37855;53.204;6.568;2023-05-15T01:42:19;48.72;;;24.48;;
51800;SDS011;37855;53.204;6.568;2023-05-15T01:44:52;52.10;;;26.25;;
51800;SDS011;37855;53.204;6.568;2023-05-15T01:47:27;52.40;;;25.92;;
51800;SDS011;37855;53.204;6.568;2023-05-15T01:50:12;52.08;;;26.95;;
51800;SDS011;37855;53.204;6.568;2023-05-15T01:52:41;47.90;;;24.33;;
51800;SDS011;37855;53.204;6.568;2023-05-15T01:55:11;51.90;;;25.63;;
51800;SDS011;37855;53.204;6.568;2023-05-15T01:57:39;45.17;;;23.77;;
51800;SDS011;37855;53.204;6.568;2023-05-15T02:00:06;50.05;;;24.38;;
51800;SDS011;37855;53.204;6.568;2023-05-15T02:02:34;45.55;;;24.42;;
51800;SDS011;37855;53.204;6.568;2023-05-15T02:05:01;51.10;;;25.37;;
51800;SDS011;37855;53.204;6.568;2023-05-15T02:07:27;51.25;;;25.73;;
51800;SDS011;37855;53.204;6.568;2023-05-15T02:09:53;54.28;;;25.95;;
51800;SDS011;37855;53.204;6.568;2023-05-15T02:12:20;56.13;;;26.23;;
51800;SDS011;37855;53.204;6.568;2023-05-15T02:14:47;46.80;;;24.97;;
51800;SDS011;37855;53.204;6.568;2023-05-15T02:17:14;48.03;;;25.17;;
51800;SDS011;37855;53.204;6.568;2023-05-15T02:19:40;48.22;;;25.02;;
51800;SDS011;37855;53.204;6.568;2023-05-15T02:22:06;52.60;;;26.40;;
51800;SDS011;37855;53.204;6.568;2023-05-15T02:24:31;52.50;;;25.77;;
51800;SDS011;37855;53.204;6.568;2023-05-15T02:27:16;49.23;;;25.67;;
51800;SDS011;37855;53.204;6.568;2023-05-15T02:35:31;44.28;;;24.00;;
51800;SDS011;37855;53.204;6.568;2023-05-15T02:38:02;45.70;;;24.40;;
51800;SDS011;37855;53.204;6.568;2023-05-15T02:40:37;49.03;;;24.47;;
51800;SDS011;37855;53.204;6.568;2023-05-15T02:43:04;46.92;;;24.27;;
51800;SDS011;37855;53.204;6.568;2023-05-15T02:45:30;44.30;;;22.77;;
51800;SDS011;37855;53.204;6.568;2023-05-15T02:47:58;49.10;;;24.58;;
51800;SDS011;37855;53.204;6.568;2023-05-15T02:50:24;47.17;;;23.92;;
51800;SDS011;37855;53.204;6.568;2023-05-15T02:52:59;50.67;;;24.10;;
51800;SDS011;37855;53.204;6.568;2023-05-15T02:55:26;45.05;;;22.73;;
51800;SDS011;37855;53.204;6.568;2023-05-15T02:57:51;43.42;;;23.58;;
51800;SDS011;37855;53.204;6.568;2023-05-15T03:00:17;43.47;;;22.70;;
51800;SDS011;37855;53.204;6.568;2023-05-15T03:02:43;45.25;;;22.02;;
51800;SDS011;37855;53.204;6.568;2023-05-15T03:05:09;42.47;;;21.13;;
51800;SDS011;37855;53.204;6.568;2023-05-15T03:07:34;41.67;;;21.00;;
51800;SDS011;37855;53.204;6.568;2023-05-15T03:10:03;44.83;;;22.47;;
51800;SDS011;37855;53.204;6.568;2023-05-15T03:12:29;48.60;;;23.30;;
51800;SDS011;37855;53.204;6.568;2023-05-15T03:14:54;44.28;;;22.85;;
51800;SDS011;37855;53.204;6.568;2023-05-15T03:17:20;50.70;;;23.93;;
51800;SDS011;37855;53.204;6.568;2023-05-15T03:19:46;60.42;;;23.73;;
51800;SDS011;37855;53.204;6.568;2023-05-15T03:22:11;48.53;;;21.40;;
51800;SDS011;37855;53.204;6.568;2023-05-15T03:24:37;49.30;;;22.25;;
51800;SDS011;37855;53.204;6.568;2023-05-15T03:27:03;49.10;;;21.33;;
51800;SDS011;37855;53.204;6.568;2023-05-15T03:29:29;41.88;;;20.85;;
51800;SDS011;37855;53.204;6.568;2023-05-15T03:31:54;47.03;;;21.97;;
51800;SDS011;37855;53.204;6.568;2023-05-15T03:34:20;44.95;;;21.42;;
51800;SDS011;37855;53.204;6.568;2023-05-15T03:36:46;49.53;;;21.03;;
51800;SDS011;37855;53.204;6.568;2023-05-15T03:39:12;47.28;;;21.60;;
51800;SDS011;37855;53.204;6.568;2023-05-15T03:41:37;43.53;;;21.50;;
51800;SDS011;37855;53.204;6.568;2023-05-15T03:44:03;39.90;;;20.67;;
51800;SDS011;37855;53.204;6.568;2023-05-15T03:46:29;32.77;;;16.97;;
51800;SDS011;37855;53.204;6.568;2023-05-15T03:48:55;32.25;;;16.88;;
51800;SDS011;37855;53.204;6.568;2023-05-15T03:51:21;32.40;;;15.93;;
51800;SDS011;37855;53.204;6.568;2023-05-15T03:53:48;29.50;;;15.20;;
51800;SDS011;37855;53.204;6.568;2023-05-15T03:56:14;28.70;;;16.30;;
51800;SDS011;37855;53.204;6.568;2023-05-15T03:58:39;29.02;;;16.00;;
51800;SDS011;37855;53.204;6.568;2023-05-15T04:01:05;34.67;;;17.23;;
51800;SDS011;37855;53.204;6.568;2023-05-15T04:03:32;29.58;;;16.75;;
51800;SDS011;37855;53.204;6.568;2023-05-15T04:05:58;31.77;;;18.25;;
51800;SDS011;37855;53.204;6.568;2023-05-15T04:08:23;30.83;;;17.23;;
51800;SDS011;37855;53.204;6.568;2023-05-15T04:10:49;32.42;;;18.80;;
51800;SDS011;37855;53.204;6.568;2023-05-15T04:13:15;30.23;;;17.30;;
51800;SDS011;37855;53.204;6.568;2023-05-15T04:15:41;28.87;;;17.00;;
51800;SDS011;37855;53.204;6.568;2023-05-15T04:18:07;28.40;;;17.57;;
51800;SDS011;37855;53.204;6.568;2023-05-15T04:20:32;29.27;;;18.10;;
51800;SDS011;37855;53.204;6.568;2023-05-15T04:22:58;30.03;;;18.27;;
51800;SDS011;37855;53.204;6.568;2023-05-15T04:25:24;26.05;;;16.67;;
51800;SDS011;37855;53.204;6.568;2023-05-15T04:27:50;25.83;;;18.13;;
51800;SDS011;37855;53.204;6.568;2023-05-15T04:30:15;26.10;;;17.10;;
51800;SDS011;37855;53.204;6.568;2023-05-15T04:32:41;25.15;;;16.92;;
51800;SDS011;37855;53.204;6.568;2023-05-15T04:35:08;23.77;;;15.18;;
51800;SDS011;37855;53.204;6.568;2023-05-15T04:37:36;21.80;;;15.10;;
51800;SDS011;37855;53.204;6.568;2023-05-15T04:40:02;22.73;;;14.90;;
51800;SDS011;37855;53.204;6.568;2023-05-15T04:42:30;23.58;;;12.32;;
51800;SDS011;37855;53.204;6.568;2023-05-15T04:44:55;21.00;;;13.70;;
51800;SDS011;37855;53.204;6.568;2023-05-15T04:47:21;20.20;;;12.98;;
51800;SDS011;37855;53.204;6.568;2023-05-15T04:49:47;21.83;;;14.47;;
51800;SDS011;37855;53.204;6.568;2023-05-15T04:52:16;27.02;;;14.68;;
51800;SDS011;37855;53.204;6.568;2023-05-15T04:54:41;23.48;;;14.70;;
51800;SDS011;37855;53.204;6.568;2023-05-15T04:57:07;22.13;;;14.13;;
51800;SDS011;37855;53.204;6.568;2023-05-15T04:59:33;24.40;;;13.77;;
51800;SDS011;37855;53.204;6.568;2023-05-15T05:02:00;22.00;;;14.30;;
51800;SDS011;37855;53.204;6.568;2023-05-15T05:04:26;20.52;;;13.82;;
51800;SDS011;37855;53.204;6.568;2023-05-15T05:06:52;18.70;;;12.87;;
51800;SDS011;37855;53.204;6.568;2023-05-15T05:09:18;20.13;;;12.83;;
51800;SDS011;37855;53.204;6.568;2023-05-15T05:11:44;17.20;;;12.27;;
51800;SDS011;37855;53.204;6.568;2023-05-15T05:14:11;18.20;;;13.60;;
51800;SDS011;37855;53.204;6.568;2023-05-15T05:16:37;20.00;;;12.57;;
51800;SDS011;37855;53.204;6.568;2023-05-15T05:19:03;20.08;;;12.75;;
51800;SDS011;37855;53.204;6.568;2023-05-15T05:21:29;20.92;;;13.70;;
51800;SDS011;37855;53.204;6.568;2023-05-15T05:23:56;21.33;;;12.73;;
51800;SDS011;37855;53.204;6.568;2023-05-15T05:26:21;21.10;;;13.90;;
51800;SDS011;37855;53.204;6.568;2023-05-15T05:28:47;18.60;;;12.87;;
51800;SDS011;37855;53.204;6.568;2023-05-15T05:31:13;20.30;;;13.65;;
51800;SDS011;37855;53.204;6.568;2023-05-15T05:33:39;19.10;;;12.23;;
51800;SDS011;37855;53.204;6.568;2023-05-15T05:36:04;15.87;;;11.47;;
51800;SDS011;37855;53.204;6.568;2023-05-15T05:38:30;18.25;;;13.55;;
51800;SDS011;37855;53.204;6.568;2023-05-15T05:40:56;18.35;;;11.32;;
51800;SDS011;37855;53.204;6.568;2023-05-15T05:43:24;19.17;;;12.87;;
51800;SDS011;37855;53.204;6.568;2023-05-15T05:45:50;20.17;;;12.18;;
51800;SDS011;37855;53.204;6.568;2023-05-15T05:48:16;19.35;;;12.00;;
51800;SDS011;37855;53.204;6.568;2023-05-15T05:50:42;16.90;;;11.30;;
51800;SDS011;37855;53.204;6.568;2023-05-15T05:53:07;17.65;;;12.57;;
51800;SDS011;37855;53.204;6.568;2023-05-15T05:55:33;19.40;;;12.00;;
51800;SDS011;37855;53.204;6.568;2023-05-15T05:57:58;20.05;;;13.27;;
51800;SDS011;37855;53.204;6.568;2023-05-15T06:00:25;18.23;;;12.52;;
51800;SDS011;37855;53.204;6.568;2023-05-15T06:02:55;18.30;;;13.30;;
51800;SDS011;37855;53.204;6.568;2023-05-15T06:05:22;21.90;;;13.07;;
51800;SDS011;37855;53.204;6.568;2023-05-15T06:07:49;19.58;;;14.10;;
51800;SDS011;37855;53.204;6.568;2023-05-15T06:10:15;21.92;;;14.20;;
51800;SDS011;37855;53.204;6.568;2023-05-15T06:12:41;19.97;;;13.53;;
51800;SDS011;37855;53.204;6.568;2023-05-15T06:15:07;20.23;;;13.00;;
51800;SDS011;37855;53.204;6.568;2023-05-15T06:17:32;20.42;;;14.45;;
51800;SDS011;37855;53.204;6.568;2023-05-15T06:19:58;19.73;;;13.77;;
51800;SDS011;37855;53.204;6.568;2023-05-15T06:22:24;18.17;;;12.90;;
51800;SDS011;37855;53.204;6.568;2023-05-15T06:24:49;16.97;;;12.23;;
51800;SDS011;37855;53.204;6.568;2023-05-15T06:27:15;19.30;;;12.77;;
51800;SDS011;37855;53.204;6.568;2023-05-15T06:29:41;21.47;;;13.33;;
51800;SDS011;37855;53.204;6.568;2023-05-15T06:32:06;19.27;;;12.93;;
51800;SDS011;37855;53.204;6.568;2023-05-15T06:34:32;15.73;;;11.52;;
51800;SDS011;37855;53.204;6.568;2023-05-15T06:36:58;13.63;;;10.30;;
51800;SDS011;37855;53.204;6.568;2023-05-15T06:39:24;16.80;;;10.07;;
51800;SDS011;37855;53.204;6.568;2023-05-15T06:41:49;15.60;;;9.87;;
51800;SDS011;37855;53.204;6.568;2023-05-15T06:44:21;16.70;;;10.68;;
51800;SDS011;37855;53.204;6.568;2023-05-15T06:46:47;14.77;;;10.52;;
51800;SDS011;37855;53.204;6.568;2023-05-15T06:49:13;15.90;;;9.20;;
51800;SDS011;37855;53.204;6.568;2023-05-15T06:51:39;13.55;;;9.23;;
51800;SDS011;37855;53.204;6.568;2023-05-15T06:54:04;15.10;;;10.07;;
51800;SDS011;37855;53.204;6.568;2023-05-15T06:56:30;13.55;;;8.93;;
51800;SDS011;37855;53.204;6.568;2023-05-15T06:58:56;13.48;;;9.15;;
51800;SDS011;37855;53.204;6.568;2023-05-15T07:01:22;13.27;;;8.80;;
51800;SDS011;37855;53.204;6.568;2023-05-15T07:03:47;12.63;;;9.50;;
51800;SDS011;37855;53.204;6.568;2023-05-15T07:06:13;13.83;;;9.47;;
51800;SDS011;37855;53.204;6.568;2023-05-15T07:08:39;14.15;;;9.75;;
51800;SDS011;37855;53.204;6.568;2023-05-15T07:11:05;13.73;;;9.23;;
51800;SDS011;37855;53.204;6.568;2023-05-15T07:13:30;12.60;;;8.30;;
51800;SDS011;37855;53.204;6.568;2023-05-15T07:15:56;13.57;;;9.40;;
51800;SDS011;37855;53.204;6.568;2023-05-15T07:18:22;13.90;;;9.48;;
51800;SDS011;37855;53.204;6.568;2023-05-15T07:20:47;14.93;;;9.33;;
51800;SDS011;37855;53.204;6.568;2023-05-15T07:23:13;13.27;;;9.07;;
51800;SDS011;37855;53.204;6.568;2023-05-15T07:25:39;10.75;;;7.15;;
51800;SDS011;37855;53.204;6.568;2023-05-15T07:28:04;13.33;;;9.20;;
51800;SDS011;37855;53.204;6.568;2023-05-15T07:30:30;14.70;;;9.38;;
51800;SDS011;37855;53.204;6.568;2023-05-15T07:32:55;13.07;;;9.07;;
51800;SDS011;37855;53.204;6.568;2023-05-15T07:35:21;13.63;;;8.48;;
51800;SDS011;37855;53.204;6.568;2023-05-15T07:37:47;14.90;;;9.27;;
51800;SDS011;37855;53.204;6.568;2023-05-15T07:40:12;12.27;;;8.70;;
51800;SDS011;37855;53.204;6.568;2023-05-15T07:42:39;10.33;;;7.73;;
51800;SDS011;37855;53.204;6.568;2023-05-15T07:45:06;11.10;;;7.78;;
51800;SDS011;37855;53.204;6.568;2023-05-15T07:47:32;10.85;;;7.28;;
51800;SDS011;37855;53.204;6.568;2023-05-15T07:49:59;11.50;;;8.07;;
51800;SDS011;37855;53.204;6.568;2023-05-15T07:52:25;10.60;;;7.97;;
51800;SDS011;37855;53.204;6.568;2023-05-15T07:54:50;12.63;;;8.55;;
51800;SDS011;37855;53.204;6.568;2023-05-15T07:57:16;12.10;;;8.57;;
51800;SDS011;37855;53.204;6.568;2023-05-15T07:59:42;11.95;;;8.23;;
51800;SDS011;37855;53.204;6.568;2023-05-15T08:02:08;10.85;;;7.72;;
51800;SDS011;37855;53.204;6.568;2023-05-15T08:04:33;11.60;;;7.37;;
51800;SDS011;37855;53.204;6.568;2023-05-15T08:06:59;12.37;;;7.83;;
51800;SDS011;37855;53.204;6.568;2023-05-15T08:09:25;13.07;;;8.07;;
51800;SDS011;37855;53.204;6.568;2023-05-15T08:11:50;13.33;;;7.90;;
51800;SDS011;37855;53.204;6.568;2023-05-15T08:14:19;13.40;;;7.45;;
51800;SDS011;37855;53.204;6.568;2023-05-15T08:16:45;11.53;;;7.13;;
51800;SDS011;37855;53.204;6.568;2023-05-15T08:19:10;11.97;;;7.90;;
51800;SDS011;37855;53.204;6.568;2023-05-15T08:21:36;12.13;;;7.77;;
51800;SDS011;37855;53.204;6.568;2023-05-15T08:24:02;11.70;;;8.13;;
51800;SDS011;37855;53.204;6.568;2023-05-15T08:26:28;15.10;;;7.97;;
51800;SDS011;37855;53.204;6.568;2023-05-15T08:28:53;13.67;;;8.13;;
51800;SDS011;37855;53.204;6.568;2023-05-15T08:31:19;10.60;;;7.82;;
51800;SDS011;37855;53.204;6.568;2023-05-15T08:33:45;11.87;;;7.67;;
51800;SDS011;37855;53.204;6.568;2023-05-15T08:36:10;15.13;;;7.60;;
51800;SDS011;37855;53.204;6.568;2023-05-15T08:38:36;12.27;;;7.70;;
51800;SDS011;37855;53.204;6.568;2023-05-15T08:41:05;10.13;;;7.57;;
51800;SDS011;37855;53.204;6.568;2023-05-15T08:43:34;10.82;;;6.50;;
51800;SDS011;37855;53.204;6.568;2023-05-15T08:46:03;12.32;;;7.93;;
51800;SDS011;37855;53.204;6.568;2023-05-15T08:48:30;12.45;;;8.20;;
51800;SDS011;37855;53.204;6.568;2023-05-15T08:51:00;13.88;;;8.50;;
51800;SDS011;37855;53.204;6.568;2023-05-15T08:53:28;11.73;;;8.17;;
51800;SDS011;37855;53.204;6.568;2023-05-15T08:55:54;11.23;;;7.70;;
51800;SDS011;37855;53.204;6.568;2023-05-15T08:58:21;11.05;;;7.68;;
51800;SDS011;37855;53.204;6.568;2023-05-15T09:00:50;11.25;;;7.25;;
51800;SDS011;37855;53.204;6.568;2023-05-15T09:03:16;11.90;;;7.47;;
51800;SDS011;37855;53.204;6.568;2023-05-15T09:05:44;12.73;;;7.93;;
51800;SDS011;37855;53.204;6.568;2023-05-15T09:08:12;13.00;;;7.65;;
51800;SDS011;37855;53.204;6.568;2023-05-15T09:10:40;11.73;;;7.70;;
51800;SDS011;37855;53.204;6.568;2023-05-15T09:13:06;13.07;;;7.55;;
51800;SDS011;37855;53.204;6.568;2023-05-15T09:15:33;11.05;;;8.23;;
51800;SDS011;37855;53.204;6.568;2023-05-15T09:17:58;10.73;;;7.50;;
51800;SDS011;37855;53.204;6.568;2023-05-15T09:22:59;11.15;;;7.18;;
51800;SDS011;37855;53.204;6.568;2023-05-15T09:25:40;10.55;;;7.40;;
51800;SDS011;37855;53.204;6.568;2023-05-15T09:28:09;12.53;;;7.83;;
51800;SDS011;37855;53.204;6.568;2023-05-15T09:30:48;11.77;;;7.68;;
51800;SDS011;37855;53.204;6.568;2023-05-15T09:33:15;10.95;;;7.13;;
51800;SDS011;37855;53.204;6.568;2023-05-15T09:35:41;14.45;;;7.70;;
51800;SDS011;37855;53.204;6.568;2023-05-15T09:38:07;11.53;;;7.17;;
51800;SDS011;37855;53.204;6.568;2023-05-15T09:40:34;10.77;;;7.30;;
51800;SDS011;37855;53.204;6.568;2023-05-15T09:43:00;11.85;;;8.13;;
51800;SDS011;37855;53.204;6.568;2023-05-15T09:45:26;11.90;;;7.30;;
51800;SDS011;37855;53.204;6.568;2023-05-15T09:47:54;10.45;;;7.50;;
51800;SDS011;37855;53.204;6.568;2023-05-15T09:50:21;10.85;;;7.88;;
51800;SDS011;37855;53.204;6.568;2023-05-15T09:52:49;12.68;;;7.55;;
51800;SDS011;37855;53.204;6.568;2023-05-15T09:55:16;12.27;;;8.83;;
51800;SDS011;37855;53.204;6.568;2023-05-15T09:57:44;9.80;;;6.72;;
51800;SDS011;37855;53.204;6.568;2023-05-15T10:00:28;12.82;;;6.95;;
51800;SDS011;37855;53.204;6.568;2023-05-15T10:02:56;11.77;;;7.68;;
51800;SDS011;37855;53.204;6.568;2023-05-15T10:05:26;11.43;;;7.45;;
51800;SDS011;37855;53.204;6.568;2023-05-15T10:07:53;10.67;;;6.63;;
51800;SDS011;37855;53.204;6.568;2023-05-15T10:10:20;11.48;;;7.40;;
51800;SDS011;37855;53.204;6.568;2023-05-15T10:12:46;9.63;;;7.10;;
51800;SDS011;37855;53.204;6.568;2023-05-15T10:15:14;10.55;;;5.70;;
51800;SDS011;37855;53.204;6.568;2023-05-15T10:17:42;10.00;;;7.35;;
51800;SDS011;37855;53.204;6.568;2023-05-15T10:20:08;10.73;;;6.77;;
51800;SDS011;37855;53.204;6.568;2023-05-15T10:22:38;11.48;;;6.72;;
51800;SDS011;37855;53.204;6.568;2023-05-15T10:28:01;12.00;;;6.70;;
51800;SDS011;37855;53.204;6.568;2023-05-15T10:30:27;10.50;;;6.47;;
51800;SDS011;37855;53.204;6.568;2023-05-15T10:32:55;10.63;;;6.23;;
51800;SDS011;37855;53.204;6.568;2023-05-15T10:35:21;9.27;;;6.82;;
51800;SDS011;37855;53.204;6.568;2023-05-15T10:37:48;9.77;;;6.90;;
51800;SDS011;37855;53.204;6.568;2023-05-15T10:40:14;10.63;;;7.43;;
51800;SDS011;37855;53.204;6.568;2023-05-15T10:42:42;14.02;;;8.10;;
51800;SDS011;37855;53.204;6.568;2023-05-15T10:45:09;12.40;;;7.77;;
51800;SDS011;37855;53.204;6.568;2023-05-15T10:47:38;11.50;;;7.60;;
51800;SDS011;37855;53.204;6.568;2023-05-15T10:50:06;10.48;;;7.72;;
51800;SDS011;37855;53.204;6.568;2023-05-15T10:52:32;11.15;;;8.48;;
51800;SDS011;37855;53.204;6.568;2023-05-15T10:55:00;11.63;;;8.40;;
51800;SDS011;37855;53.204;6.568;2023-05-15T10:57:28;11.53;;;7.53;;
51800;SDS011;37855;53.204;6.568;2023-05-15T10:59:54;12.35;;;7.85;;
51800;SDS011;37855;53.204;6.568;2023-05-15T11:02:22;12.07;;;7.63;;
51800;SDS011;37855;53.204;6.568;2023-05-15T11:05:00;13.75;;;8.10;;
51800;SDS011;37855;53.204;6.568;2023-05-15T11:07:30;11.50;;;8.38;;
51800;SDS011;37855;53.204;6.568;2023-05-15T11:09:56;10.77;;;7.40;;
51800;SDS011;37855;53.204;6.568;2023-05-15T11:12:24;10.30;;;7.40;;
51800;SDS011;37855;53.204;6.568;2023-05-15T11:17:36;10.90;;;7.77;;
51800;SDS011;37855;53.204;6.568;2023-05-15T11:20:02;13.25;;;7.65;;
51800;SDS011;37855;53.204;6.568;2023-05-15T11:25:02;12.47;;;7.23;;
51800;SDS011;37855;53.204;6.568;2023-05-15T11:35:11;12.43;;;7.13;;
51800;SDS011;37855;53.204;6.568;2023-05-15T11:37:56;10.38;;;7.25;;
51800;SDS011;37855;53.204;6.568;2023-05-15T11:40:30;11.93;;;7.10;;
51800;SDS011;37855;53.204;6.568;2023-05-15T11:43:07;10.07;;;6.90;;
51800;SDS011;37855;53.204;6.568;2023-05-15T11:45:40;11.23;;;7.50;;
51800;SDS011;37855;53.204;6.568;2023-05-15T11:48:09;11.50;;;7.60;;
51800;SDS011;37855;53.204;6.568;2023-05-15T11:50:37;12.32;;;7.97;;
51800;SDS011;37855;53.204;6.568;2023-05-15T11:53:04;11.02;;;7.53;;
51800;SDS011;37855;53.204;6.568;2023-05-15T11:55:32;13.18;;;7.53;;
51800;SDS011;37855;53.204;6.568;2023-05-15T11:57:59;13.02;;;7.70;;
51800;SDS011;37855;53.204;6.568;2023-05-15T12:00:25;10.80;;;7.60;;
51800;SDS011;37855;53.204;6.568;2023-05-15T12:02:51;12.07;;;8.00;;
51800;SDS011;37855;53.204;6.568;2023-05-15T12:05:16;11.38;;;8.00;;
51800;SDS011;37855;53.204;6.568;2023-05-15T12:07:42;12.27;;;7.63;;
51800;SDS011;37855;53.204;6.568;2023-05-15T12:10:09;12.05;;;7.85;;
51800;SDS011;37855;53.204;6.568;2023-05-15T12:12:43;12.00;;;8.10;;
51800;SDS011;37855;53.204;6.568;2023-05-15T12:15:13;11.13;;;6.88;;
51800;SDS011;37855;53.204;6.568;2023-05-15T12:17:41;10.83;;;8.37;;
51800;SDS011;37855;53.204;6.568;2023-05-15T12:20:13;13.93;;;7.10;;
51800;SDS011;37855;53.204;6.568;2023-05-15T12:22:42;11.60;;;7.70;;
51800;SDS011;37855;53.204;6.568;2023-05-15T12:25:09;10.13;;;7.03;;
51800;SDS011;37855;53.204;6.568;2023-05-15T12:27:36;12.77;;;7.30;;
51800;SDS011;37855;53.204;6.568;2023-05-15T12:30:03;10.40;;;7.20;;
51800;SDS011;37855;53.204;6.568;2023-05-15T12:32:34;11.65;;;7.82;;
51800;SDS011;37855;53.204;6.568;2023-05-15T12:35:00;10.65;;;7.68;;
51800;SDS011;37855;53.204;6.568;2023-05-15T12:37:31;11.38;;;7.57;;
51800;SDS011;37855;53.204;6.568;2023-05-15T12:39:59;10.35;;;6.78;;
51800;SDS011;37855;53.204;6.568;2023-05-15T12:42:26;10.03;;;6.53;;
51800;SDS011;37855;53.204;6.568;2023-05-15T12:44:52;10.45;;;7.00;;
51800;SDS011;37855;53.204;6.568;2023-05-15T12:47:22;13.30;;;7.97;;
51800;SDS011;37855;53.204;6.568;2023-05-15T12:49:49;11.55;;;8.60;;
51800;SDS011;37855;53.204;6.568;2023-05-15T12:52:22;13.13;;;8.50;;
51800;SDS011;37855;53.204;6.568;2023-05-15T12:54:52;12.48;;;8.25;;
51800;SDS011;37855;53.204;6.568;2023-05-15T12:57:17;11.82;;;7.53;;
51800;SDS011;37855;53.204;6.568;2023-05-15T12:59:44;12.27;;;8.67;;
51800;SDS011;37855;53.204;6.568;2023-05-15T13:02:10;11.13;;;6.97;;
51800;SDS011;37855;53.204;6.568;2023-05-15T13:04:37;9.60;;;7.30;;
51800;SDS011;37855;53.204;6.568;2023-05-15T13:07:03;11.83;;;6.83;;
51800;SDS011;37855;53.204;6.568;2023-05-15T13:09:29;10.52;;;7.20;;
51800;SDS011;37855;53.204;6.568;2023-05-15T13:11:57;9.10;;;7.20;;
51800;SDS011;37855;53.204;6.568;2023-05-15T13:14:22;10.38;;;6.60;;
51800;SDS011;37855;53.204;6.568;2023-05-15T13:16:53;9.93;;;6.23;;
51800;SDS011;37855;53.204;6.568;2023-05-15T13:19:29;9.88;;;6.18;;
51800;SDS011;37855;53.204;6.568;2023-05-15T13:21:55;11.25;;;6.20;;
51800;SDS011;37855;53.204;6.568;2023-05-15T13:24:21;9.23;;;5.90;;
51800;SDS011;37855;53.204;6.568;2023-05-15T13:26:47;9.13;;;6.40;;
51800;SDS011;37855;53.204;6.568;2023-05-15T13:29:12;8.40;;;6.43;;
51800;SDS011;37855;53.204;6.568;2023-05-15T13:31:38;10.10;;;6.27;;
51800;SDS011;37855;53.204;6.568;2023-05-15T13:34:04;10.23;;;6.37;;
51800;SDS011;37855;53.204;6.568;2023-05-15T13:36:29;9.07;;;5.90;;
51800;SDS011;37855;53.204;6.568;2023-05-15T13:38:55;10.65;;;5.82;;
51800;SDS011;37855;53.204;6.568;2023-05-15T13:41:21;7.10;;;4.97;;
51800;SDS011;37855;53.204;6.568;2023-05-15T13:43:46;11.35;;;6.25;;
51800;SDS011;37855;53.204;6.568;2023-05-15T13:46:13;9.53;;;6.50;;
51800;SDS011;37855;53.204;6.568;2023-05-15T13:48:39;10.60;;;7.25;;
51800;SDS011;37855;53.204;6.568;2023-05-15T13:51:04;10.13;;;7.05;;
51800;SDS011;37855;53.204;6.568;2023-05-15T13:53:30;10.83;;;7.20;;
51800;SDS011;37855;53.204;6.568;2023-05-15T13:55:56;10.52;;;7.60;;
51800;SDS011;37855;53.204;6.568;2023-05-15T13:58:22;11.83;;;7.47;;
51800;SDS011;37855;53.204;6.568;2023-05-15T14:00:50;11.95;;;8.05;;
51800;SDS011;37855;53.204;6.568;2023-05-15T14:03:16;11.38;;;7.57;;
51800;SDS011;37855;53.204;6.568;2023-05-15T14:05:41;10.80;;;7.20;;
51800;SDS011;37855;53.204;6.568;2023-05-15T14:08:07;8.53;;;6.50;;
51800;SDS011;37855;53.204;6.568;2023-05-15T14:10:34;10.30;;;7.25;;
51800;SDS011;37855;53.204;6.568;2023-05-15T14:13:01;11.32;;;6.97;;
51800;SDS011;37855;53.204;6.568;2023-05-15T14:15:26;9.37;;;6.00;;
51800;SDS011;37855;53.204;6.568;2023-05-15T14:17:52;10.73;;;7.15;;
51800;SDS011;37855;53.204;6.568;2023-05-15T14:20:18;11.68;;;6.32;;
51800;SDS011;37855;53.204;6.568;2023-05-15T14:22:43;10.40;;;6.40;;
51800;SDS011;37855;53.204;6.568;2023-05-15T14:25:10;8.32;;;6.25;;
51800;SDS011;37855;53.204;6.568;2023-05-15T14:27:35;7.67;;;5.30;;
51800;SDS011;37855;53.204;6.568;2023-05-15T14:30:01;9.70;;;6.00;;
51800;SDS011;37855;53.204;6.568;2023-05-15T14:32:27;8.30;;;5.60;;
51800;SDS011;37855;53.204;6.568;2023-05-15T14:34:53;9.97;;;5.37;;
51800;SDS011;37855;53.204;6.568;2023-05-15T14:37:20;8.88;;;5.15;;
51800;SDS011;37855;53.204;6.568;2023-05-15T14:39:48;11.00;;;5.97;;
51800;SDS011;37855;53.204;6.568;2023-05-15T14:42:15;9.33;;;5.97;;
51800;SDS011;37855;53.204;6.568;2023-05-15T14:44:42;9.93;;;6.20;;
51800;SDS011;37855;53.204;6.568;2023-05-15T14:47:10;10.98;;;6.90;;
51800;SDS011;37855;53.204;6.568;2023-05-15T14:49:37;10.57;;;6.50;;
51800;SDS011;37855;53.204;6.568;2023-05-15T14:52:04;9.23;;;6.20;;
51800;SDS011;37855;53.204;6.568;2023-05-15T14:54:34;9.27;;;5.20;;
51800;SDS011;37855;53.204;6.568;2023-05-15T14:57:01;9.15;;;5.40;;
51800;SDS011;37855;53.204;6.568;2023-05-15T14:59:27;8.43;;;5.07;;
51800;SDS011;37855;53.204;6.568;2023-05-15T15:01:54;8.67;;;4.93;;
51800;SDS011;37855;53.204;6.568;2023-05-15T15:04:20;8.50;;;5.13;;